createdAt,value
2023-12-30T00:01:36.169Z,48.42
2023-12-30T00:04:03.278Z,47.74
2023-12-30T00:06:30.089Z,47.70
2023-12-30T00:08:56.744Z,48.19
2023-12-30T00:11:23.500Z,48.50
2023-12-30T00:13:50.107Z,47.63
2023-12-30T00:16:16.760Z,48.06
2023-12-30T00:18:43.505Z,47.65
2023-12-30T00:21:10.672Z,47.98
2023-12-30T00:23:43.309Z,48.42
2023-12-30T00:26:22.491Z,48.42
2023-12-30T00:28:50.074Z,47.43
2023-12-30T00:31:26.036Z,48.05
2023-12-30T00:33:53.904Z,47.90
2023-12-30T00:36:20.609Z,47.80
2023-12-30T00:38:47.244Z,47.13
2023-12-30T00:41:14.412Z,48.18
2023-12-30T00:43:44.576Z,47.61
2023-12-30T00:46:11.210Z,48.29
2023-12-30T00:48:37.909Z,47.50
2023-12-30T00:51:04.697Z,47.47
2023-12-30T00:53:31.347Z,47.43
2023-12-30T00:55:58.116Z,48.10
2023-12-30T00:58:25.194Z,47.68
2023-12-30T01:00:52.165Z,47.96
2023-12-30T01:03:18.871Z,47.64
2023-12-30T01:05:45.815Z,47.50
2023-12-30T01:08:12.674Z,47.61
2023-12-30T01:10:39.576Z,48.07
2023-12-30T01:13:09.635Z,48.59
2023-12-30T01:15:36.436Z,47.33
2023-12-30T01:18:04.088Z,47.92
2023-12-30T01:20:31.300Z,48.49
2023-12-30T01:22:58.043Z,47.71
2023-12-30T01:25:24.765Z,48.47
2023-12-30T01:27:51.500Z,48.32
2023-12-30T01:30:18.308Z,47.82
2023-12-30T01:32:45.861Z,48.49
2023-12-30T01:35:12.578Z,48.26
2023-12-30T01:37:40.307Z,48.30
2023-12-30T01:40:07.477Z,47.66
2023-12-30T01:42:34.112Z,48.53
2023-12-30T01:45:00.806Z,47.96
2023-12-30T01:47:27.458Z,47.71
2023-12-30T01:49:54.221Z,48.08
2023-12-30T01:52:20.997Z,48.74
2023-12-30T01:54:47.888Z,47.89
2023-12-30T01:57:14.571Z,48.04
2023-12-30T01:59:41.280Z,47.97
2023-12-30T02:02:08.050Z,48.34
2023-12-30T02:04:34.823Z,48.00
2023-12-30T02:07:01.626Z,47.73
2023-12-30T02:09:28.524Z,48.45
2023-12-30T02:11:55.239Z,48.21
2023-12-30T02:14:25.350Z,48.01
2023-12-30T02:16:52.117Z,48.15
2023-12-30T02:19:18.882Z,48.90
2023-12-30T02:21:45.947Z,47.25
2023-12-30T02:24:13.318Z,47.38
2023-12-30T02:26:41.017Z,47.67
2023-12-30T02:29:08.294Z,47.02
2023-12-30T02:31:36.845Z,47.15
2023-12-30T02:34:03.613Z,47.56
2023-12-30T02:36:30.282Z,48.53
2023-12-30T02:38:57.660Z,48.53
2023-12-30T02:41:24.582Z,48.52
2023-12-30T02:43:56.167Z,48.10
2023-12-30T02:46:22.844Z,48.72
2023-12-30T02:48:49.603Z,48.26
2023-12-30T02:51:16.786Z,47.40
2023-12-30T02:53:43.416Z,47.30
2023-12-30T02:56:23.668Z,47.69
2023-12-30T02:58:57.508Z,47.61
2023-12-30T03:01:25.971Z,47.30
2023-12-30T03:03:53.556Z,46.96
2023-12-30T03:06:21.292Z,46.95
2023-12-30T03:08:50.891Z,46.60
2023-12-30T03:11:17.703Z,46.29
2023-12-30T03:13:44.428Z,46.52
2023-12-30T03:16:17.528Z,46.65
2023-12-30T03:18:44.767Z,46.95
2023-12-30T03:21:14.070Z,46.29
2023-12-30T03:23:40.854Z,46.59
2023-12-30T03:26:09.157Z,46.67
2023-12-30T03:28:35.849Z,46.77
2023-12-30T03:31:02.600Z,46.67
2023-12-30T03:33:29.351Z,47.19
2023-12-30T03:35:56.098Z,46.94
2023-12-30T03:38:22.751Z,47.29
2023-12-30T03:40:49.431Z,47.65
2023-12-30T03:43:16.116Z,48.02
2023-12-30T03:45:42.843Z,47.68
2023-12-30T03:48:09.830Z,47.80
2023-12-30T03:50:38.417Z,47.75
2023-12-30T03:53:06.266Z,48.08
2023-12-30T03:55:33.058Z,48.34
2023-12-30T03:58:00.109Z,48.35
2023-12-30T04:00:26.859Z,47.55
2023-12-30T04:02:53.671Z,47.94
2023-12-30T04:05:20.432Z,47.91
2023-12-30T04:07:47.128Z,47.84
2023-12-30T04:10:16.323Z,47.54
2023-12-30T04:12:43.383Z,48.34
2023-12-30T04:15:10.850Z,47.97
2023-12-30T04:17:38.106Z,48.54
2023-12-30T04:20:06.798Z,48.00
2023-12-30T04:22:33.994Z,47.70
2023-12-30T04:25:01.187Z,47.56
2023-12-30T04:27:28.602Z,47.67
2023-12-30T04:29:55.373Z,48.59
2023-12-30T04:32:22.399Z,48.03
2023-12-30T04:34:50.124Z,47.99
2023-12-30T04:37:17.008Z,48.18
2023-12-30T04:39:43.702Z,48.42
2023-12-30T04:42:10.344Z,47.97
2023-12-30T04:44:37.008Z,47.69
2023-12-30T04:47:03.638Z,47.17
2023-12-30T04:49:30.393Z,47.06
2023-12-30T04:51:57.172Z,47.28
2023-12-30T04:54:24.103Z,47.29
2023-12-30T04:56:52.373Z,46.98
2023-12-30T04:59:19.635Z,47.99
2023-12-30T05:01:46.300Z,47.16
2023-12-30T05:04:12.986Z,47.23
2023-12-30T05:06:39.627Z,47.21
2023-12-30T05:09:07.032Z,47.80
2023-12-30T05:11:33.676Z,47.89
2023-12-30T05:14:00.627Z,47.42
2023-12-30T05:16:27.438Z,47.11
2023-12-30T05:18:54.364Z,47.08
2023-12-30T05:21:21.130Z,48.60
2023-12-30T05:23:47.822Z,48.90
2023-12-30T05:26:14.785Z,47.50
2023-12-30T05:28:41.473Z,47.37
2023-12-30T05:31:08.481Z,48.06
2023-12-30T05:33:35.503Z,47.63
2023-12-30T05:36:02.201Z,48.01
2023-12-30T05:38:28.853Z,47.67
2023-12-30T05:40:55.529Z,47.22
2023-12-30T05:43:24.124Z,47.07
2023-12-30T05:45:51.000Z,47.04
2023-12-30T05:48:17.879Z,47.98
2023-12-30T05:50:44.649Z,47.71
2023-12-30T05:53:12.343Z,47.42
2023-12-30T05:55:42.015Z,47.82
2023-12-30T05:58:08.804Z,48.40
2023-12-30T06:00:36.250Z,47.86
2023-12-30T06:03:03.287Z,47.92
2023-12-30T06:05:30.496Z,47.71
2023-12-30T06:07:57.213Z,47.87
2023-12-30T06:10:24.699Z,47.93
2023-12-30T06:12:51.947Z,47.55
2023-12-30T06:15:21.576Z,47.54
2023-12-30T06:17:48.478Z,48.11
2023-12-30T06:20:15.262Z,47.78
2023-12-30T06:22:41.878Z,47.11
2023-12-30T06:25:08.727Z,47.91
2023-12-30T06:27:35.494Z,47.06
2023-12-30T06:30:02.708Z,48.18
2023-12-30T06:32:29.510Z,47.81
2023-12-30T06:34:56.361Z,48.11
2023-12-30T06:37:23.005Z,48.46
2023-12-30T06:39:49.773Z,47.41
2023-12-30T06:42:16.416Z,47.60
2023-12-30T06:44:43.026Z,47.39
2023-12-30T06:47:09.710Z,48.11
2023-12-30T06:49:40.467Z,47.65
2023-12-30T06:52:07.681Z,48.20
2023-12-30T06:54:34.979Z,48.27
2023-12-30T06:57:01.778Z,47.97
2023-12-30T06:59:28.580Z,48.50
2023-12-30T07:01:55.223Z,47.45
2023-12-30T07:04:22.679Z,47.54
2023-12-30T07:06:49.441Z,48.26
2023-12-30T07:09:16.150Z,47.77
2023-12-30T07:11:42.805Z,47.36
2023-12-30T07:14:09.485Z,47.82
2023-12-30T07:16:36.213Z,48.15
2023-12-30T07:19:03.473Z,47.68
2023-12-30T07:21:30.893Z,47.32
2023-12-30T07:23:57.569Z,48.19
2023-12-30T07:26:24.214Z,47.55
2023-12-30T07:28:50.851Z,47.58
2023-12-30T07:31:17.626Z,47.89
2023-12-30T07:33:44.480Z,47.22
2023-12-30T07:36:12.089Z,47.61
2023-12-30T07:38:38.716Z,47.41
2023-12-30T07:41:05.337Z,48.41
2023-12-30T07:43:32.063Z,48.46
2023-12-30T07:45:59.028Z,47.31
2023-12-30T07:48:25.693Z,47.99
2023-12-30T07:50:52.357Z,47.87
2023-12-30T07:53:18.964Z,48.35
2023-12-30T07:55:45.746Z,47.87
2023-12-30T07:58:12.429Z,47.53
2023-12-30T08:00:39.353Z,47.12
2023-12-30T08:03:06.559Z,47.71
2023-12-30T08:05:33.524Z,47.92
2023-12-30T08:08:00.230Z,47.56
2023-12-30T08:10:26.981Z,46.89
2023-12-30T08:12:53.660Z,48.20
2023-12-30T08:15:20.403Z,47.96
2023-12-30T08:17:47.228Z,47.96
2023-12-30T08:20:14.522Z,48.15
2023-12-30T08:22:41.227Z,48.28
2023-12-30T08:25:09.478Z,47.96
2023-12-30T08:27:36.552Z,47.87
2023-12-30T08:30:04.221Z,47.05
2023-12-30T08:32:30.928Z,47.90
2023-12-30T08:34:58.605Z,47.97
2023-12-30T08:37:25.490Z,47.93
2023-12-30T08:39:52.193Z,47.78
2023-12-30T08:42:19.214Z,47.40
2023-12-30T08:44:45.868Z,48.10
2023-12-30T08:47:12.830Z,47.03
2023-12-30T08:49:39.694Z,47.95
2023-12-30T08:52:06.487Z,47.04
2023-12-30T08:54:33.228Z,47.75
2023-12-30T08:56:59.954Z,47.35
2023-12-30T08:59:27.070Z,47.85
2023-12-30T09:01:53.884Z,47.17
2023-12-30T09:04:20.828Z,47.54
2023-12-30T09:06:47.826Z,47.54
2023-12-30T09:09:14.493Z,47.08
2023-12-30T09:11:41.329Z,47.52
2023-12-30T09:14:08.012Z,47.75
2023-12-30T09:16:34.826Z,48.66
2023-12-30T09:19:01.728Z,47.80
2023-12-30T09:21:30.692Z,47.82
2023-12-30T09:23:58.242Z,47.38
2023-12-30T09:26:25.548Z,47.84
2023-12-30T09:28:53.297Z,47.79
2023-12-30T09:31:21.615Z,47.69
2023-12-30T09:33:50.287Z,47.84
2023-12-30T09:36:18.462Z,47.22
2023-12-30T09:38:45.330Z,47.74
2023-12-30T09:41:14.134Z,48.23
2023-12-30T09:43:40.909Z,48.24
2023-12-30T09:46:07.579Z,47.44
2023-12-30T09:48:34.450Z,48.53
2023-12-30T09:51:01.102Z,48.59
2023-12-30T09:53:28.341Z,48.64
2023-12-30T09:55:55.222Z,47.76
2023-12-30T09:58:22.523Z,48.29
2023-12-30T10:00:49.722Z,47.56
2023-12-30T10:03:17.522Z,48.55
2023-12-30T10:05:44.488Z,48.17
2023-12-30T10:08:11.503Z,47.72
2023-12-30T10:10:45.167Z,48.55
2023-12-30T10:13:17.611Z,48.44
2023-12-30T10:15:44.478Z,48.28
2023-12-30T10:18:11.746Z,47.68
2023-12-30T10:20:40.263Z,48.67
2023-12-30T10:23:07.914Z,48.23
2023-12-30T10:25:35.320Z,47.76
2023-12-30T10:28:02.594Z,47.76
2023-12-30T10:30:31.752Z,48.72
2023-12-30T10:33:14.868Z,48.28
2023-12-30T10:35:45.424Z,47.89
2023-12-30T10:38:14.015Z,47.76
2023-12-30T10:40:41.273Z,48.07
2023-12-30T10:43:10.023Z,47.77
2023-12-30T10:45:37.076Z,47.78
2023-12-30T10:48:04.057Z,47.96
2023-12-30T10:50:31.931Z,48.07
2023-12-30T10:53:03.628Z,47.78
2023-12-30T10:55:36.743Z,48.56
2023-12-30T10:58:20.843Z,47.94
2023-12-30T11:00:57.378Z,48.28
2023-12-30T11:03:24.625Z,48.71
2023-12-30T11:06:02.860Z,48.44
2023-12-30T11:08:29.798Z,47.67
2023-12-30T11:10:59.379Z,47.75
2023-12-30T11:13:26.248Z,48.04
2023-12-30T11:15:53.233Z,48.35
2023-12-30T11:18:46.965Z,48.01
2023-12-30T11:21:14.086Z,47.81
2023-12-30T11:23:40.744Z,47.79
2023-12-30T11:26:07.367Z,48.43
2023-12-30T11:28:34.094Z,48.35
2023-12-30T11:31:01.442Z,47.97
2023-12-30T11:33:28.502Z,47.88
2023-12-30T11:35:55.730Z,48.12
2023-12-30T11:38:22.473Z,47.83
2023-12-30T11:40:53.306Z,47.98
2023-12-30T11:43:21.453Z,48.34
2023-12-30T11:45:48.983Z,48.10
2023-12-30T11:48:16.053Z,48.05
2023-12-30T11:50:43.362Z,48.77
2023-12-30T11:53:10.034Z,47.88
2023-12-30T11:55:36.765Z,47.55
2023-12-30T11:58:03.630Z,47.40
2023-12-30T12:00:30.354Z,47.60
2023-12-30T12:02:58.098Z,47.61
2023-12-30T12:05:24.746Z,47.47
2023-12-30T12:07:51.410Z,47.42
2023-12-30T12:10:18.490Z,47.12
2023-12-30T12:12:46.928Z,47.46
2023-12-30T12:15:14.467Z,47.82
2023-12-30T12:17:41.737Z,47.32
2023-12-30T12:20:09.943Z,47.48
2023-12-30T12:22:37.355Z,50.19
2023-12-30T12:25:04.340Z,47.79
2023-12-30T12:27:31.235Z,45.53
2023-12-30T12:29:57.915Z,42.07
2023-12-30T12:32:25.386Z,39.95
2023-12-30T12:34:55.196Z,38.16
2023-12-30T12:37:23.178Z,36.98
2023-12-30T12:39:49.849Z,36.04
2023-12-30T12:42:26.980Z,33.75
2023-12-30T12:44:57.549Z,33.26
2023-12-30T12:47:24.358Z,32.46
2023-12-30T12:49:51.092Z,32.38
2023-12-30T12:52:17.826Z,30.94
2023-12-30T12:54:44.763Z,29.86
2023-12-30T12:57:11.769Z,29.24
2023-12-30T12:59:39.182Z,30.55
2023-12-30T13:02:06.132Z,31.33
2023-12-30T13:04:32.854Z,32.68
2023-12-30T13:06:59.585Z,33.38
2023-12-30T13:09:46.531Z,34.24
2023-12-30T13:12:14.340Z,35.12
2023-12-30T13:14:42.497Z,34.82
2023-12-30T13:17:13.632Z,33.18
2023-12-30T13:19:45.241Z,31.91
2023-12-30T13:22:12.497Z,30.30
2023-12-30T13:24:39.509Z,30.37
2023-12-30T13:27:13.232Z,31.26
2023-12-30T13:29:39.998Z,31.84
2023-12-30T13:32:06.911Z,32.99
2023-12-30T13:34:35.590Z,33.52
2023-12-30T13:37:07.239Z,35.09
2023-12-30T13:39:35.212Z,35.28
2023-12-30T13:42:05.587Z,35.44
2023-12-30T13:44:42.091Z,35.76
2023-12-30T13:47:27.771Z,36.31
2023-12-30T13:50:12.492Z,34.89
2023-12-30T13:52:39.181Z,33.15
2023-12-30T13:55:14.182Z,32.82
2023-12-30T13:57:41.710Z,32.70
2023-12-30T14:00:08.776Z,32.99
2023-12-30T14:02:39.761Z,33.74
2023-12-30T14:05:08.885Z,33.67
2023-12-30T14:07:35.867Z,34.38
2023-12-30T14:10:07.652Z,34.39
2023-12-30T14:12:35.900Z,35.13
2023-12-30T14:15:07.869Z,35.63
2023-12-30T14:17:36.290Z,35.79
2023-12-30T14:20:06.495Z,36.17
2023-12-30T14:22:33.640Z,36.43
2023-12-30T14:25:01.389Z,37.11
2023-12-30T14:27:28.111Z,36.91
2023-12-30T14:29:59.201Z,37.36
2023-12-30T14:32:26.076Z,37.15
2023-12-30T14:34:53.242Z,37.54
2023-12-30T14:37:20.023Z,37.29
2023-12-30T14:39:46.711Z,37.48
2023-12-30T14:42:13.463Z,37.67
2023-12-30T14:44:40.803Z,38.31
2023-12-30T14:47:07.418Z,38.20
2023-12-30T14:49:34.109Z,37.88
2023-12-30T14:52:00.826Z,37.99
2023-12-30T14:54:27.477Z,38.19
2023-12-30T14:56:54.650Z,38.49
2023-12-30T14:59:21.332Z,38.71
2023-12-30T15:01:48.283Z,38.84
2023-12-30T15:04:14.981Z,38.29
2023-12-30T15:06:42.548Z,38.44
2023-12-30T15:09:11.106Z,38.63
2023-12-30T15:11:37.905Z,39.35
2023-12-30T15:14:06.249Z,38.61
2023-12-30T15:16:33.085Z,39.40
2023-12-30T15:19:00.528Z,39.00
2023-12-30T15:21:27.434Z,38.99
2023-12-30T15:23:54.178Z,39.45
2023-12-30T15:26:20.912Z,38.84
2023-12-30T15:28:48.272Z,39.43
2023-12-30T15:31:15.017Z,39.52
2023-12-30T15:33:41.850Z,39.51
2023-12-30T15:36:08.581Z,38.93
2023-12-30T15:42:13.193Z,38.95
2023-12-30T15:44:39.896Z,39.60
2023-12-30T15:47:08.494Z,38.50
2023-12-30T15:49:35.573Z,38.77
2023-12-30T15:52:02.352Z,39.42
2023-12-30T15:54:29.056Z,39.60
2023-12-30T15:56:55.691Z,38.41
2023-12-30T15:59:22.304Z,38.86
2023-12-30T16:01:49.410Z,39.46
2023-12-30T16:04:16.128Z,39.05
2023-12-30T16:06:42.769Z,38.60
2023-12-30T16:09:09.438Z,38.99
2023-12-30T16:11:36.824Z,39.43
2023-12-30T16:14:05.723Z,38.30
2023-12-30T16:16:34.909Z,38.89
2023-12-30T16:19:01.921Z,39.54
2023-12-30T16:21:28.648Z,39.06
2023-12-30T16:23:55.296Z,38.38
2023-12-30T16:26:23.984Z,39.28
2023-12-30T16:28:50.605Z,38.52
2023-12-30T16:31:17.370Z,38.31
2023-12-30T16:33:44.961Z,39.32
2023-12-30T16:36:12.748Z,38.58
2023-12-30T16:38:39.412Z,38.34
2023-12-30T16:41:06.061Z,38.82
2023-12-30T16:43:33.355Z,39.38
2023-12-30T16:46:00.439Z,38.56
2023-12-30T16:48:27.241Z,39.40
2023-12-30T16:50:53.908Z,38.22
2023-12-30T16:53:20.546Z,39.31
2023-12-30T16:55:47.293Z,38.72
2023-12-30T16:58:14.061Z,38.82
2023-12-30T17:00:40.707Z,38.44
2023-12-30T17:03:07.693Z,39.30
2023-12-30T17:05:34.376Z,39.19
2023-12-30T17:08:00.983Z,39.32
2023-12-30T17:10:27.622Z,39.10
2023-12-30T17:12:54.222Z,38.96
2023-12-30T17:15:20.842Z,38.86
2023-12-30T17:17:47.511Z,38.20
2023-12-30T17:20:16.978Z,38.42
2023-12-30T17:22:43.840Z,38.81
2023-12-30T17:25:10.598Z,37.90
2023-12-30T17:27:37.521Z,38.94
2023-12-30T17:30:07.259Z,38.64
2023-12-30T17:32:34.471Z,38.79
2023-12-30T17:35:01.158Z,38.57
2023-12-30T17:37:27.918Z,39.25
2023-12-30T17:39:54.661Z,38.02
2023-12-30T17:42:21.952Z,38.40
2023-12-30T17:44:50.543Z,38.51
2023-12-30T17:47:17.220Z,38.08
2023-12-30T17:53:23.762Z,39.11
2023-12-30T17:55:50.666Z,39.23
2023-12-30T17:58:17.408Z,38.81
2023-12-30T18:00:44.135Z,38.36
2023-12-30T18:03:11.231Z,38.27
2023-12-30T18:05:38.197Z,38.77
2023-12-30T18:08:07.461Z,38.41
2023-12-30T18:10:34.663Z,38.92
2023-12-30T18:13:01.654Z,38.68
2023-12-30T18:15:28.770Z,39.00
2023-12-30T18:17:55.520Z,38.28
2023-12-30T18:20:25.608Z,38.20
2023-12-30T18:22:52.731Z,38.24
2023-12-30T18:25:20.684Z,38.41
2023-12-30T18:27:47.545Z,38.17
2023-12-30T18:30:14.681Z,38.65
2023-12-30T18:32:41.344Z,38.20
2023-12-30T18:35:08.279Z,38.63
2023-12-30T18:37:35.458Z,37.90
2023-12-30T18:40:03.810Z,38.36
2023-12-30T18:42:30.584Z,38.57
2023-12-30T18:44:57.264Z,38.28
2023-12-30T18:47:23.913Z,38.70
2023-12-30T18:49:50.590Z,38.20
2023-12-30T18:52:18.970Z,38.66
2023-12-30T18:54:45.667Z,38.87
2023-12-30T18:57:12.686Z,38.26
2023-12-30T18:59:39.292Z,38.08
2023-12-30T19:02:06.024Z,38.65
2023-12-30T19:04:35.948Z,38.41
2023-12-30T19:07:04.318Z,38.68
2023-12-30T19:09:31.059Z,38.28
2023-12-30T19:11:57.761Z,38.55
2023-12-30T19:14:24.822Z,38.31
2023-12-30T19:16:51.680Z,38.57
2023-12-30T19:19:18.537Z,38.15
2023-12-30T19:21:45.190Z,38.23
2023-12-30T19:24:11.830Z,38.49
2023-12-30T19:26:38.637Z,38.76
2023-12-30T19:29:05.254Z,38.60
2023-12-30T19:31:32.008Z,38.42
2023-12-30T19:33:58.735Z,38.42
2023-12-30T19:36:26.007Z,38.68
2023-12-30T19:38:56.128Z,38.78
2023-12-30T19:41:22.796Z,39.00
2023-12-30T19:43:49.535Z,38.63
2023-12-30T19:46:16.257Z,38.96
2023-12-30T19:48:43.690Z,38.66
2023-12-30T19:51:10.765Z,39.02
2023-12-30T19:53:37.535Z,38.48
2023-12-30T19:56:04.521Z,38.81
2023-12-30T19:58:32.159Z,38.81
2023-12-30T20:00:59.138Z,38.88
2023-12-30T20:03:25.813Z,38.47
2023-12-30T20:05:53.256Z,38.64
2023-12-30T20:08:20.085Z,38.72
2023-12-30T20:10:47.914Z,38.35
2023-12-30T20:13:15.186Z,38.97
2023-12-30T20:15:41.945Z,38.58
2023-12-30T20:18:08.649Z,38.98
2023-12-30T20:20:35.333Z,38.45
2023-12-30T20:23:02.220Z,38.88
2023-12-30T20:25:31.807Z,38.76
2023-12-30T20:27:58.864Z,38.87
2023-12-30T20:30:25.754Z,39.04
2023-12-30T20:32:52.427Z,38.61
2023-12-30T20:35:19.092Z,38.40
2023-12-30T20:37:45.795Z,38.65
2023-12-30T20:40:12.981Z,38.43
2023-12-30T20:42:39.996Z,38.90
2023-12-30T20:45:06.818Z,38.46
2023-12-30T20:47:33.611Z,38.84
2023-12-30T20:50:00.322Z,38.33
2023-12-30T20:52:27.031Z,38.39
2023-12-30T20:54:53.687Z,38.81
2023-12-30T20:57:20.370Z,38.92
2023-12-30T20:59:47.328Z,38.31
2023-12-30T21:02:16.320Z,39.08
2023-12-30T21:04:43.152Z,38.54
2023-12-30T21:07:09.888Z,38.49
2023-12-30T21:09:38.625Z,39.16
2023-12-30T21:12:08.119Z,39.01
2023-12-30T21:14:34.900Z,38.82
2023-12-30T21:17:04.519Z,38.83
2023-12-30T21:19:35.621Z,38.76
2023-12-30T21:22:02.462Z,39.24
2023-12-30T21:24:29.156Z,39.40
2023-12-30T21:26:55.810Z,39.39
2023-12-30T21:29:24.165Z,39.21
2023-12-30T21:31:53.610Z,39.40
2023-12-30T21:34:20.268Z,38.58
2023-12-30T21:36:46.886Z,38.50
2023-12-30T21:39:13.974Z,39.03
2023-12-30T21:41:40.943Z,39.13
2023-12-30T21:44:07.658Z,38.64
2023-12-30T21:46:36.076Z,38.92
2023-12-30T21:49:02.764Z,38.71
2023-12-30T21:51:29.434Z,38.85
2023-12-30T21:53:56.155Z,38.74
2023-12-30T21:56:25.837Z,39.76
2023-12-30T21:58:52.492Z,39.32
2023-12-30T22:01:19.258Z,39.01
2023-12-30T22:03:45.987Z,39.28
2023-12-30T22:06:13.530Z,38.94
2023-12-30T22:08:41.008Z,39.09
2023-12-30T22:11:07.653Z,38.96
2023-12-30T22:13:34.295Z,39.07
2023-12-30T22:16:01.982Z,40.08
2023-12-30T22:18:29.033Z,38.96
2023-12-30T22:20:55.923Z,39.79
2023-12-30T22:23:22.937Z,38.98
2023-12-30T22:25:49.719Z,39.26
2023-12-30T22:28:16.370Z,39.06
2023-12-30T22:30:43.125Z,39.98
2023-12-30T22:33:10.006Z,39.23
2023-12-30T22:35:36.696Z,39.07
2023-12-30T22:38:03.659Z,40.01
2023-12-30T22:40:30.500Z,39.20
2023-12-30T22:42:57.208Z,39.36
2023-12-30T22:45:24.223Z,39.84
2023-12-30T22:47:51.030Z,40.16
2023-12-30T22:50:18.327Z,39.27
2023-12-30T22:52:45.126Z,40.19
2023-12-30T22:55:11.908Z,39.05
2023-12-30T22:57:38.707Z,39.10
2023-12-30T23:00:11.275Z,39.54
2023-12-30T23:02:38.290Z,40.34
2023-12-30T23:05:05.336Z,39.52
2023-12-30T23:07:32.089Z,39.93
2023-12-30T23:09:58.783Z,40.42
2023-12-30T23:12:25.842Z,39.89
2023-12-30T23:14:52.509Z,40.20
2023-12-30T23:17:19.157Z,40.20
2023-12-30T23:19:46.623Z,39.21
2023-12-30T23:22:13.912Z,40.15
2023-12-30T23:24:40.766Z,39.26
2023-12-30T23:27:07.416Z,39.21
2023-12-30T23:29:34.335Z,39.43
2023-12-30T23:32:00.955Z,40.27
2023-12-30T23:34:39.039Z,39.25
2023-12-30T23:37:12.431Z,39.80
2023-12-30T23:39:39.282Z,40.22
2023-12-30T23:42:08.030Z,40.13
2023-12-30T23:44:34.804Z,40.30
2023-12-30T23:47:01.493Z,40.39
2023-12-30T23:49:28.223Z,39.91
2023-12-30T23:51:54.849Z,39.54
2023-12-30T23:54:21.495Z,40.16
2023-12-30T23:56:48.156Z,40.48
2023-12-30T23:59:18.230Z,40.34
